»·PEaware :: N2348J KBUR-KSBA

N2348J :: KBUR-KSBA

FLIGHT INFORMATION

Flight Status: Arrived
Operator: Privately registered:
United States
More flights under this callsign
Pilot: Dan A. (28807)
Aircraft: PIPER PA-28R-201 ARROW
(P28R)
More flights by this aircraft type
Origin: KBUR Bob Hope-Burbank
United States
Destination: KSBA Santa Barbara Mun
United States
More flights between these airports :: More routes between these airports
Route: VNY3 FIM V186 DEANO V27 KWANG
File this flight plan on PilotEdge
Remarks:
Altitude:
(Current/Filed)
6,000ft
Speed:
(Current/Filed)
135kts
Departed: 06-Feb-21 01:31 PM
Arrived: 06-Feb-21 02:10 PM
Distance/Time
Traveled:
75nm/0:39
Distance/Time
To Go:
Arrived

Flight Plot

Page will automatically refresh every two minutes.

Flight plan parsing failed; only flown route is shown


Map Options




Map Legend


Flown Route
Filed Route
Departure Airport
Arrival Airport
Navaid (VOR, NDB)
Fix

Horizontal Profiles

Position Reports

Time Latitude Longitude Heading Altitude Ground
Speed
06-Feb-21 13:04 34.200211 -118.358861 280 777ft 0kts
06-Feb-21 13:05 34.200211 -118.358861 280 777ft 0kts
06-Feb-21 13:06 34.200211 -118.358861 280 777ft 0kts
06-Feb-21 13:07 34.200211 -118.358861 280 777ft 0kts
06-Feb-21 13:08 34.200211 -118.358861 280 777ft 0kts
06-Feb-21 13:09 34.200211 -118.358861 280 777ft 0kts
06-Feb-21 13:10 34.200211 -118.358861 280 777ft 0kts
06-Feb-21 13:11 34.200211 -118.358861 280 777ft 0kts
06-Feb-21 13:12 34.200211 -118.358861 280 777ft 0kts
06-Feb-21 13:13 34.200211 -118.358861 280 777ft 0kts
06-Feb-21 13:14 34.200211 -118.358861 280 777ft 0kts
06-Feb-21 13:15 34.200211 -118.358861 280 777ft 0kts
06-Feb-21 13:16 34.200211 -118.358861 280 777ft 0kts
06-Feb-21 13:17 34.200211 -118.358861 280 777ft 0kts
06-Feb-21 13:18 34.200211 -118.358861 280 777ft 0kts
06-Feb-21 13:18 34.200211 -118.358861 280 777ft 0kts
06-Feb-21 13:20 34.200211 -118.358861 280 777ft 0kts
06-Feb-21 13:21 34.200211 -118.358861 280 777ft 0kts
06-Feb-21 13:21 34.200211 -118.358861 280 777ft 0kts
06-Feb-21 13:22 34.200211 -118.358861 280 777ft 0kts
06-Feb-21 13:23 34.201612 -118.359480 48 777ft 7kts
06-Feb-21 13:24 34.203511 -118.359178 347 777ft 14kts
06-Feb-21 13:25 34.209061 -118.360710 346 777ft 23kts
06-Feb-21 13:26 34.211489 -118.361255 35 777ft 0kts
06-Feb-21 13:27 34.211489 -118.361255 35 777ft 0kts
06-Feb-21 13:28 34.211489 -118.361255 35 777ft 0kts
06-Feb-21 13:29 34.211018 -118.360114 167 777ft 38kts
06-Feb-21 13:30 34.191653 -118.361584 230 1702ft 83kts
06-Feb-21 13:31 34.176210 -118.382509 230 2796ft 87kts
06-Feb-21 13:32 34.160293 -118.405735 229 3831ft 95kts
06-Feb-21 13:33 34.143115 -118.431537 256 4820ft 101kts
06-Feb-21 13:34 34.143492 -118.465276 273 5778ft 101kts
06-Feb-21 13:35 34.143828 -118.504077 276 6062ft 132kts
06-Feb-21 13:36 34.145223 -118.550145 275 6045ft 139kts
06-Feb-21 13:37 34.146228 -118.596553 273 6038ft 137kts
06-Feb-21 13:38 34.147944 -118.642156 284 6054ft 132kts
06-Feb-21 13:39 34.157675 -118.685199 287 6055ft 131kts
06-Feb-21 13:40 34.167580 -118.727902 283 6044ft 131kts
06-Feb-21 13:41 34.174843 -118.771301 280 6023ft 131kts
06-Feb-21 13:42 34.181133 -118.815248 280 6034ft 129kts
06-Feb-21 13:43 34.187515 -118.858402 282 6061ft 130kts
06-Feb-21 13:44 34.196038 -118.900882 286 6051ft 129kts
06-Feb-21 13:45 34.204055 -118.943264 282 6048ft 128kts
06-Feb-21 13:46 34.211422 -118.985208 287 6043ft 127kts
06-Feb-21 13:47 34.219797 -119.026518 280 6037ft 126kts
06-Feb-21 13:48 34.226468 -119.067662 285 6023ft 125kts
06-Feb-21 13:49 34.234508 -119.108686 282 6018ft 125kts
06-Feb-21 13:50 34.242392 -119.149641 284 6018ft 124kts
06-Feb-21 13:51 34.250064 -119.190665 284 6018ft 125kts
06-Feb-21 13:52 34.258243 -119.234810 284 5421ft 142kts
06-Feb-21 13:53 34.266885 -119.281922 283 4668ft 144kts
06-Feb-21 13:54 34.275410 -119.328709 283 4057ft 138kts
06-Feb-21 13:55 34.283224 -119.371555 283 4033ft 126kts
06-Feb-21 13:56 34.290798 -119.412990 283 4033ft 125kts
06-Feb-21 13:57 34.298331 -119.454251 283 4034ft 125kts
06-Feb-21 13:58 34.306968 -119.495274 279 4035ft 126kts
06-Feb-21 13:59 34.318308 -119.534755 296 3872ft 128kts
06-Feb-21 14:00 34.332440 -119.573390 287 3478ft 125kts
06-Feb-21 14:01 34.345808 -119.613474 296 3102ft 130kts
06-Feb-21 14:02 34.363941 -119.652561 299 2453ft 134kts
06-Feb-21 14:03 34.381101 -119.691977 289 2123ft 129kts
06-Feb-21 14:04 34.393162 -119.732238 288 1884ft 114kts
06-Feb-21 14:05 34.405757 -119.763614 291 1164ft 89kts
06-Feb-21 14:06 34.417462 -119.787937 309 974ft 82kts
06-Feb-21 14:07 34.428440 -119.812308 263 429ft 83kts
06-Feb-21 14:08 34.427814 -119.838832 266 15ft 55kts
06-Feb-21 14:09 34.428626 -119.841984 347 15ft 0kts
06-Feb-21 14:10 34.428900 -119.842069 342 15ft 6kts
06-Feb-21 14:11 34.429853 -119.841992 64 15ft 0kts
06-Feb-21 14:12 34.430547 -119.840229 67 15ft 13kts
06-Feb-21 14:13 34.431586 -119.836844 70 15ft 7kts
06-Feb-21 14:14 34.432368 -119.836195 319 15ft 3kts
06-Feb-21 14:15 34.432640 -119.836233 38 15ft 0kts

Navigation Log

Ident Type
Flight plan parsing failed, navigation log unavailable